Time;durP1;ratioP1;P1;durP2;ratioP2;P2;SDS_P1;SDS_P2;PMS_P1;PMS_P2;Temp;Humidity;BMP_temperature;BMP_pressure;BME280_temperature;BME280_humidity;BME280_pressure;Samples;Min_cycle;Max_cycle;Signal;HPM_P1;HPM_P2
2022/01/29 00:03:32;;;;;;;3.23;1.80;;;;;;;3.81;53.16;97371.16;6001715;23;20194;-94
2022/01/29 00:07:50;;;;;;;2.87;1.90;;;;;;;3.82;52.24;97385.63;6043748;23;20208;-93
2022/01/29 00:17:21;;;;;;;2.03;1.50;;;;;;;3.93;51.20;97378.66;6058405;23;20177;-95
2022/01/29 00:32:06;;;;;;;4.60;2.33;;;;;;;3.84;52.14;97379.63;5925458;24;20203;-96
2022/01/29 00:45:27;;;;;;;3.13;1.67;;;;;;;3.55;53.88;97383.44;5875634;24;20188;-89
2022/01/29 00:49:05;;;;;;;3.63;2.03;;;;;;;3.58;53.72;97409.03;5852735;24;20182;-90
2022/01/29 00:57:17;;;;;;;2.50;1.87;;;;;;;3.51;54.13;97399.72;5801700;24;20224;-89
2022/01/29 01:01:21;;;;;;;2.83;1.80;;;;;;;3.49;54.20;97398.88;5796475;24;20175;-93
2022/01/29 01:10:46;;;;;;;2.00;1.60;;;;;;;3.59;53.66;97382.53;5898519;24;20199;-92
2022/01/29 01:15:05;;;;;;;3.43;2.07;;;;;;;3.56;53.90;97380.03;5898280;24;20179;-92
2022/01/29 01:19:39;;;;;;;4.37;2.00;;;;;;;3.49;54.52;97371.56;5901306;24;20181;-95
2022/01/29 01:23:42;;;;;;;2.33;1.90;;;;;;;3.50;53.61;97362.19;5916278;24;20238;-89
2022/01/29 01:27:31;;;;;;;3.10;2.10;;;;;;;3.46;54.02;97361.41;5895532;24;20184;-89
2022/01/29 01:31:32;;;;;;;3.07;1.87;;;;;;;3.63;53.10;97369.69;6014374;23;20171;-93
2022/01/29 01:40:52;;;;;;;2.57;1.70;;;;;;;3.61;52.47;97375.69;5986365;24;20552;-93
2022/01/29 01:45:23;;;;;;;4.50;1.90;;;;;;;3.53;53.22;97372.38;5901962;24;20280;-91
2022/01/29 01:48:51;;;;;;;3.40;1.97;;;;;;;3.55;53.31;97379.16;5998868;23;20174;-96
2022/01/29 01:52:33;;;;;;;4.03;1.70;;;;;;;3.58;53.01;97383.41;5980614;24;20210;-94
2022/01/29 01:57:08;;;;;;;3.57;1.70;;;;;;;3.63;53.10;97381.63;5899070;24;20314;-89
2022/01/29 02:01:35;;;;;;;1.63;1.50;;;;;;;3.72;53.16;97378.94;5841897;24;20189;-93
2022/01/29 02:25:50;;;;;;;2.00;1.70;;;;;;;3.73;52.81;97391.72;5920550;24;20209;-93
2022/01/29 02:40:24;;;;;;;3.40;1.90;;;;;;;3.48;54.24;97394.63;6039552;23;20285;-95
2022/01/29 02:48:17;;;;;;;4.60;2.13;;;;;;;3.12;53.27;97389.09;6024079;23;20183;-93
2022/01/29 02:52:14;;;;;;;3.53;1.93;;;;;;;3.05;53.06;97387.44;6019068;23;20191;-93
2022/01/29 02:56:15;;;;;;;2.53;2.30;;;;;;;3.01;52.76;97387.53;6024467;23;20200;-94
2022/01/29 03:14:33;;;;;;;7.27;3.43;;;;;;;2.60;55.88;97416.03;5961071;24;20199;-95
2022/01/29 03:19:03;;;;;;;5.83;3.20;;;;;;;2.64;54.33;97412.56;5932388;24;20171;-96
2022/01/29 03:33:30;;;;;;;2.67;2.00;;;;;;;2.63;57.76;97399.81;5838175;24;20283;-90
2022/01/29 03:38:06;;;;;;;2.43;2.00;;;;;;;2.78;57.97;97400.50;5787170;24;20179;-93
2022/01/29 03:46:33;;;;;;;4.07;2.73;;;;;;;2.86;58.58;97391.09;5808025;24;20180;-91
2022/01/29 03:50:46;;;;;;;6.63;2.83;;;;;;;2.83;58.04;97393.66;5831243;24;20186;-92
2022/01/29 03:54:43;;;;;;;2.83;2.10;;;;;;;2.82;58.73;97391.97;5919455;24;20181;-89
2022/01/29 04:01:51;;;;;;;4.27;2.57;;;;;;;2.42;59.14;97394.03;5892507;24;20264;-89
2022/01/29 04:04:36;;;;;;;3.33;2.13;;;;;;;2.66;58.90;97392.97;5920444;24;20247;-89
2022/01/29 04:07:44;;;;;;;2.13;1.87;;;;;;;2.94;57.78;97414.88;5897650;24;20295;-90
2022/01/29 04:11:44;;;;;;;1.93;1.73;;;;;;;3.05;58.04;97419.88;5920757;24;20329;-89
2022/01/29 04:20:51;;;;;;;3.60;2.20;;;;;;;3.10;58.08;97430.91;5951916;24;20246;-94
2022/01/29 04:30:30;;;;;;;6.57;2.27;;;;;;;3.07;58.24;97428.38;5953291;24;20593;-95
2022/01/29 04:33:53;;;;;;;3.37;1.90;;;;;;;3.05;58.81;97432.66;5960888;23;20205;-93
2022/01/29 04:36:46;;;;;;;2.67;2.03;;;;;;;3.09;59.12;97444.56;5961309;24;20262;-92
2022/01/29 04:40:22;;;;;;;3.07;2.50;;;;;;;2.95;58.39;97434.44;5933558;24;20175;-95
2022/01/29 04:44:40;;;;;;;5.63;2.40;;;;;;;3.01;59.15;97447.19;5951329;24;20582;-93
2022/01/29 04:48:43;;;;;;;5.60;2.60;;;;;;;2.94;59.51;97439.59;5957686;24;20186;-94
2022/01/29 04:51:53;;;;;;;3.57;2.63;;;;;;;2.95;59.00;97449.78;5957494;24;20187;-90
2022/01/29 04:56:05;;;;;;;3.33;2.30;;;;;;;2.98;58.97;97454.03;5903910;24;20176;-95
2022/01/29 04:59:40;;;;;;;3.53;1.80;;;;;;;2.96;58.52;97456.63;5935690;24;20173;-91
2022/01/29 05:03:12;;;;;;;4.40;2.53;;;;;;;2.91;59.43;97448.13;5955444;24;20744;-91
2022/01/29 05:06:24;;;;;;;3.90;2.23;;;;;;;2.99;58.97;97461.69;5964719;24;20188;-88
2022/01/29 05:13:15;;;;;;;2.50;2.30;;;;;;;3.05;58.76;97461.63;5960795;24;20231;-88
2022/01/29 05:29:37;;;;;;;2.97;1.93;;;;;;;3.04;58.75;97469.34;6026683;23;20174;-88
2022/01/29 05:32:43;;;;;;;4.10;2.80;;;;;;;3.03;58.70;97468.47;6069637;23;20170;-88
2022/01/29 05:36:13;;;;;;;8.93;3.10;;;;;;;3.05;58.77;97465.94;6146052;23;20202;-88
2022/01/29 05:39:47;;;;;;;5.40;3.00;;;;;;;2.69;59.06;97405.72;6110728;23;20205;-90
2022/01/29 05:42:48;;;;;;;6.27;2.70;;;;;;;3.11;60.12;97487.16;6181264;23;20169;-90
2022/01/29 05:46:07;;;;;;;4.13;2.43;;;;;;;3.13;59.88;97490.53;6133918;23;20175;-89
2022/01/29 05:50:27;;;;;;;4.77;2.90;;;;;;;3.07;59.36;97479.56;6179710;23;20164;-89
2022/01/29 05:53:16;;;;;;;6.77;2.90;;;;;;;3.20;59.39;97506.69;6040654;23;20173;-90
2022/01/29 05:56:26;;;;;;;3.37;2.80;;;;;;;3.19;59.42;97510.94;6068608;23;20153;-89
2022/01/29 06:00:40;;;;;;;5.20;2.70;;;;;;;3.16;60.09;97516.13;6085895;23;20174;-89
2022/01/29 06:06:34;;;;;;;3.83;3.00;;;;;;;3.10;60.18;97512.75;6050785;23;20989;-89
2022/01/29 06:09:35;;;;;;;4.90;3.03;;;;;;;3.23;60.09;97524.59;6055432;23;20209;-89
2022/01/29 06:12:24;;;;;;;3.97;2.43;;;;;;;3.32;60.13;97524.47;6058860;23;20315;-88
2022/01/29 06:15:05;;;;;;;4.50;3.00;;;;;;;3.40;59.36;97527.00;6061696;23;20173;-87
2022/01/29 06:17:51;;;;;;;4.30;3.17;;;;;;;3.44;59.03;97529.50;6083360;23;20173;-87
2022/01/29 06:20:28;;;;;;;5.93;3.60;;;;;;;3.47;59.50;97536.28;6059314;23;20173;-86
2022/01/29 06:23:12;;;;;;;4.83;2.90;;;;;;;3.46;59.73;97538.03;6055360;23;20196;-88
2022/01/29 06:25:52;;;;;;;5.43;3.13;;;;;;;3.58;59.41;97539.59;6050607;23;20239;-88
2022/01/29 06:28:44;;;;;;;6.23;3.03;;;;;;;3.42;59.72;97515.84;6036338;23;20177;-88
2022/01/29 06:31:34;;;;;;;4.70;3.50;;;;;;;3.48;59.76;97530.31;6073677;23;20191;-87
2022/01/29 06:34:27;;;;;;;3.37;2.77;;;;;;;3.46;59.42;97529.50;6049950;23;20254;-87
2022/01/29 06:42:21;;;;;;;4.63;2.97;;;;;;;3.76;59.11;97554.75;6067272;23;20188;-88
2022/01/29 06:45:44;;;;;;;7.13;4.13;;;;;;;3.88;59.23;97555.47;6102509;23;20263;-89
2022/01/29 06:49:39;;;;;;;5.13;3.00;;;;;;;3.63;58.69;97512.22;6081534;23;20254;-88
2022/01/29 06:52:50;;;;;;;6.17;3.27;;;;;;;3.73;58.38;97547.13;6111748;23;20182;-89
2022/01/29 06:56:40;;;;;;;4.80;3.23;;;;;;;3.87;58.92;97573.44;6030179;23;20185;-87
2022/01/29 06:59:33;;;;;;;3.50;2.90;;;;;;;3.94;58.70;97575.03;6027666;23;20253;-88
2022/01/29 07:12:31;;;;;;;10.60;6.90;;;;;;;3.70;57.11;97570.19;5958698;24;20485;-89
2022/01/29 07:16:14;;;;;;;9.23;6.50;;;;;;;3.74;57.18;97595.75;5847012;24;20215;-88
2022/01/29 07:24:10;;;;;;;3.07;2.70;;;;;;;4.29;57.99;97590.00;5828901;24;20640;-88
2022/01/29 07:28:27;;;;;;;4.30;2.70;;;;;;;4.44;57.30;97587.25;5832206;24;20179;-87
2022/01/29 07:32:14;;;;;;;3.67;2.50;;;;;;;4.39;57.07;97587.31;5830468;24;20180;-89
2022/01/29 07:37:01;;;;;;;6.33;3.37;;;;;;;4.43;57.13;97591.53;5879834;24;20232;-87
2022/01/29 07:40:33;;;;;;;4.23;2.97;;;;;;;4.45;56.77;97592.34;5852448;24;20178;-88
2022/01/29 07:43:45;;;;;;;4.63;2.67;;;;;;;4.54;56.88;97584.53;5900042;24;20237;-88
2022/01/29 07:47:42;;;;;;;3.53;2.60;;;;;;;4.63;56.68;97594.69;5884650;24;20520;-88
2022/01/29 07:51:17;;;;;;;4.17;2.83;;;;;;;4.63;56.15;97589.56;5897171;24;20332;-88
2022/01/29 07:59:18;;;;;;;5.57;3.37;;;;;;;4.57;56.08;97558.88;5928421;24;20186;-88
2022/01/29 08:02:23;;;;;;;3.07;2.63;;;;;;;4.82;55.96;97620.94;5958805;24;20177;-88
2022/01/29 08:05:15;;;;;;;3.77;2.80;;;;;;;4.79;56.14;97623.53;5932088;24;20321;-88
2022/01/29 08:08:17;;;;;;;2.87;2.60;;;;;;;4.91;55.86;97620.78;5932495;24;20178;-92
2022/01/29 08:11:46;;;;;;;7.30;4.53;;;;;;;4.82;56.74;97615.81;6004659;23;20211;-91
2022/01/29 08:14:56;;;;;;;3.10;2.57;;;;;;;4.77;56.09;97597.91;6068992;23;20187;-90
2022/01/29 08:17:53;;;;;;;2.93;2.63;;;;;;;4.78;56.07;97622.69;6071634;23;20176;-91
2022/01/29 08:20:55;;;;;;;4.77;2.73;;;;;;;4.90;56.32;97625.06;6064639;23;20257;-92
2022/01/29 08:27:32;;;;;;;3.83;2.63;;;;;;;4.85;56.35;97647.41;6050293;23;20187;-92
2022/01/29 08:30:22;;;;;;;4.43;2.87;;;;;;;5.02;56.43;97649.72;6051403;23;20914;-96
2022/01/29 08:38:14;;;;;;;4.17;2.63;;;;;;;4.90;56.14;97629.38;5943492;24;20750;-93
2022/01/29 08:45:53;;;;;;;3.20;2.63;;;;;;;4.72;56.48;97634.72;5907474;24;20213;-90
2022/01/29 08:48:41;;;;;;;4.80;3.03;;;;;;;4.82;56.71;97662.81;5926669;24;20187;-89
2022/01/29 08:52:14;;;;;;;4.30;3.10;;;;;;;4.66;56.97;97635.66;5917831;24;20173;-89
2022/01/29 08:59:48;;;;;;;5.50;3.67;;;;;;;5.10;56.62;97652.19;5920427;24;20272;-89
2022/01/29 09:02:40;;;;;;;5.00;3.60;;;;;;;5.01;56.52;97657.47;5921423;24;20645;-87
2022/01/29 09:05:13;;;;;;;5.53;3.73;;;;;;;4.89;57.06;97689.25;5904102;24;20211;-83
2022/01/29 09:07:41;;;;;;;3.93;2.93;;;;;;;4.71;56.57;97684.34;5938533;24;20242;-84
2022/01/29 09:10:09;;;;;;;5.67;2.97;;;;;;;4.53;56.89;97630.72;6000551;23;20687;-83
2022/01/29 09:12:37;;;;;;;3.63;3.00;;;;;;;4.61;56.65;97647.72;6021425;23;20185;-84
2022/01/29 09:15:16;;;;;;;6.50;3.60;;;;;;;4.99;57.08;97690.81;6008455;23;20173;-83
2022/01/29 09:18:07;;;;;;;3.10;2.80;;;;;;;4.88;56.39;97669.59;6102651;23;20653;-83
2022/01/29 09:25:09;;;;;;;5.20;3.53;;;;;;;4.72;57.00;97681.75;5999279;23;20296;-84
2022/01/29 09:28:30;;;;;;;3.17;2.83;;;;;;;4.49;57.90;97668.38;5982001;23;20184;-82
2022/01/29 09:31:53;;;;;;;5.73;3.07;;;;;;;4.90;56.98;97686.66;6032787;23;20178;-83
2022/01/29 09:35:19;;;;;;;4.83;2.77;;;;;;;4.93;56.75;97660.09;6031417;23;20179;-83
2022/01/29 09:38:44;;;;;;;3.37;3.03;;;;;;;5.21;55.41;97681.97;6018553;23;20204;-83
2022/01/29 09:42:08;;;;;;;5.40;3.63;;;;;;;5.31;55.77;97682.69;6021960;23;20171;-83
2022/01/29 09:45:38;;;;;;;3.73;2.63;;;;;;;4.75;57.36;97686.88;6041142;23;20677;-83
2022/01/29 09:48:59;;;;;;;7.63;3.47;;;;;;;4.69;57.34;97669.00;5971981;23;20254;-83
2022/01/29 09:51:42;;;;;;;7.17;4.40;;;;;;;5.14;55.52;97664.94;6042001;23;20236;-83
2022/01/29 09:54:10;;;;;;;7.07;3.47;;;;;;;5.10;54.87;97671.00;6048380;23;20173;-83
2022/01/29 09:56:43;;;;;;;4.70;3.20;;;;;;;5.11;56.20;97679.56;6086283;23;20181;-85
2022/01/29 09:59:15;;;;;;;3.27;2.97;;;;;;;4.88;55.48;97651.63;6107628;23;20207;-88
2022/01/29 10:01:54;;;;;;;4.10;3.13;;;;;;;4.65;55.79;97651.09;6065951;23;20183;-86
2022/01/29 10:04:51;;;;;;;4.17;3.17;;;;;;;4.99;55.33;97669.47;6110835;23;20209;-86
2022/01/29 10:07:34;;;;;;;3.63;2.80;;;;;;;4.97;55.63;97660.06;6110670;23;20238;-86
2022/01/29 10:10:19;;;;;;;4.50;2.80;;;;;;;4.69;55.94;97599.72;6086738;23;20168;-88
2022/01/29 10:12:49;;;;;;;3.63;3.27;;;;;;;5.10;54.87;97632.50;6088166;23;20184;-85
2022/01/29 10:15:23;;;;;;;5.20;3.50;;;;;;;5.18;54.81;97610.13;6086871;23;20178;-86
2022/01/29 10:17:54;;;;;;;4.03;2.70;;;;;;;5.30;54.23;97665.56;6062136;23;20181;-86
2022/01/29 10:20:43;;;;;;;4.77;2.53;;;;;;;5.14;54.79;97644.41;6089285;23;20181;-86
2022/01/29 10:23:51;;;;;;;6.97;3.30;;;;;;;5.32;54.03;97648.41;6099630;23;20169;-85
2022/01/29 10:26:38;;;;;;;3.10;2.47;;;;;;;5.15;54.19;97660.66;6107961;23;20176;-86
2022/01/29 10:29:26;;;;;;;3.83;2.90;;;;;;;5.34;54.16;97652.66;6133319;23;20169;-85
2022/01/29 10:32:02;;;;;;;2.77;2.57;;;;;;;5.31;54.17;97646.72;6107656;23;20170;-86
2022/01/29 10:34:36;;;;;;;3.87;2.67;;;;;;;5.39;53.64;97639.75;6078637;23;20172;-85
2022/01/29 10:37:52;;;;;;;3.57;2.80;;;;;;;5.57;52.38;97653.13;6132037;23;20224;-87
2022/01/29 10:45:26;;;;;;;3.53;2.67;;;;;;;5.55;52.28;97612.94;6142706;23;20267;-88
2022/01/29 10:49:45;;;;;;;4.77;3.00;;;;;;;5.74;51.56;97637.44;6073542;23;20242;-88
2022/01/29 10:53:30;;;;;;;5.33;2.50;;;;;;;5.77;50.78;97637.38;6054165;23;20239;-92
2022/01/29 10:56:59;;;;;;;3.83;2.30;;;;;;;5.98;49.44;97639.59;6077218;23;20257;-89
2022/01/29 11:00:51;;;;;;;2.80;2.10;;;;;;;6.22;48.97;97652.00;6076910;23;20231;-88
2022/01/29 11:04:10;;;;;;;2.53;1.90;;;;;;;6.22;47.40;97659.72;6031474;23;20212;-87
2022/01/29 11:08:54;;;;;;;2.73;2.30;;;;;;;6.19;48.43;97654.66;6027980;23;20184;-87
2022/01/29 11:12:21;;;;;;;4.47;2.57;;;;;;;6.08;48.98;97620.56;5975397;23;20201;-88
2022/01/29 11:15:59;;;;;;;4.87;2.87;;;;;;;5.55;49.45;97580.41;5977124;24;20192;-88
2022/01/29 11:18:52;;;;;;;3.30;2.67;;;;;;;5.77;48.67;97645.09;5952185;24;20171;-87
2022/01/29 11:21:28;;;;;;;2.90;2.60;;;;;;;5.51;49.19;97621.56;5960445;24;20192;-83
2022/01/29 11:24:09;;;;;;;3.17;2.70;;;;;;;5.58;49.85;97625.75;5944964;23;20595;-82
2022/01/29 11:26:39;;;;;;;3.07;2.73;;;;;;;5.40;49.72;97590.09;6001830;23;20184;-83
2022/01/29 11:29:23;;;;;;;4.00;2.40;;;;;;;5.63;49.77;97639.34;5981528;23;20177;-82
2022/01/29 11:32:22;;;;;;;3.07;2.73;;;;;;;5.53;49.60;97653.22;6004675;23;20177;-82
2022/01/29 11:35:07;;;;;;;5.73;2.47;;;;;;;5.54;50.46;97644.66;5961068;23;20180;-83
2022/01/29 11:37:57;;;;;;;2.27;2.00;;;;;;;5.40;49.72;97618.34;6031077;23;20201;-83
2022/01/29 11:40:57;;;;;;;4.53;2.70;;;;;;;5.66;50.26;97642.72;6013549;23;20577;-83
2022/01/29 11:43:30;;;;;;;4.50;2.70;;;;;;;5.82;49.22;97640.72;6052543;23;20670;-85
2022/01/29 11:46:15;;;;;;;5.63;3.30;;;;;;;6.03;49.04;97635.25;6097260;23;20508;-82
2022/01/29 11:48:56;;;;;;;2.50;2.20;;;;;;;5.80;48.53;97611.63;6097480;23;20171;-82
2022/01/29 11:52:06;;;;;;;3.63;2.67;;;;;;;6.09;47.89;97629.13;6095772;23;20169;-83
2022/01/29 11:55:01;;;;;;;2.33;2.00;;;;;;;6.27;47.07;97639.91;6070347;23;20178;-82
2022/01/29 11:57:31;;;;;;;3.40;2.17;;;;;;;6.15;46.34;97608.44;6096591;23;20169;-82
2022/01/29 12:01:10;;;;;;;4.33;2.50;;;;;;;6.47;47.84;97642.94;6053582;23;20174;-82
2022/01/29 12:04:32;;;;;;;3.47;2.43;;;;;;;6.05;49.30;97638.63;6116224;23;20212;-82
2022/01/29 12:07:53;;;;;;;2.40;1.80;;;;;;;5.89;49.11;97637.22;6130283;23;20199;-83
2022/01/29 12:11:18;;;;;;;4.37;2.97;;;;;;;5.87;48.92;97638.97;6081085;23;20173;-83
2022/01/29 12:15:05;;;;;;;4.20;2.07;;;;;;;5.91;49.71;97643.19;6136467;23;20260;-83
2022/01/29 12:18:39;;;;;;;3.17;2.03;;;;;;;5.85;50.04;97635.59;6102659;23;20542;-83
2022/01/29 12:22:01;;;;;;;3.20;2.10;;;;;;;5.90;48.89;97638.91;6097158;23;20246;-83
2022/01/29 12:25:27;;;;;;;2.60;2.40;;;;;;;5.70;50.51;97636.66;6153206;23;20209;-82
2022/01/29 12:28:52;;;;;;;3.43;2.83;;;;;;;5.54;50.76;97626.66;6126559;23;20206;-83
2022/01/29 12:32:40;;;;;;;2.20;2.00;;;;;;;5.59;50.72;97622.28;6137067;23;20244;-83
2022/01/29 12:36:05;;;;;;;3.77;2.13;;;;;;;5.54;50.07;97619.78;6120775;23;20241;-83
2022/01/29 12:39:27;;;;;;;4.00;2.63;;;;;;;5.45;50.77;97603.69;6101656;23;20174;-83
2022/01/29 12:42:59;;;;;;;2.57;2.23;;;;;;;5.52;49.63;97633.56;6127202;23;20219;-83
2022/01/29 12:46:33;;;;;;;5.70;2.77;;;;;;;5.56;49.81;97630.06;6127819;23;20183;-83
2022/01/29 12:50:01;;;;;;;2.33;2.10;;;;;;;5.56;49.88;97624.91;6105037;23;20278;-83
2022/01/29 12:53:07;;;;;;;3.20;2.20;;;;;;;5.67;49.63;97638.41;6150226;23;20544;-83
2022/01/29 12:56:38;;;;;;;4.53;2.60;;;;;;;5.76;48.94;97616.00;6103219;23;20177;-84
2022/01/29 12:59:58;;;;;;;3.10;2.30;;;;;;;5.91;49.38;97620.06;6102439;23;20203;-82
2022/01/29 13:03:27;;;;;;;2.80;2.40;;;;;;;6.02;49.40;97617.28;6104100;23;20177;-83
2022/01/29 13:06:54;;;;;;;3.00;2.00;;;;;;;6.05;48.89;97624.94;6123081;23;20176;-83
2022/01/29 13:10:15;;;;;;;3.67;2.77;;;;;;;6.11;49.03;97617.94;6150972;23;20195;-83
2022/01/29 13:13:51;;;;;;;6.97;3.07;;;;;;;5.71;49.20;97612.66;6153337;23;20235;-84
2022/01/29 13:17:12;;;;;;;3.40;2.80;;;;;;;5.77;48.64;97616.81;6132316;23;20199;-82
2022/01/29 13:20:34;;;;;;;3.60;2.50;;;;;;;5.90;49.14;97613.19;6162617;23;20201;-83
2022/01/29 13:23:56;;;;;;;3.70;2.63;;;;;;;5.97;49.28;97619.94;6138587;23;20169;-82
2022/01/29 13:27:28;;;;;;;3.77;2.73;;;;;;;5.92;48.36;97621.72;6165565;23;20226;-81
2022/01/29 13:30:50;;;;;;;5.07;2.33;;;;;;;5.98;48.23;97631.91;6137620;23;20176;-80
2022/01/29 13:34:13;;;;;;;3.23;2.10;;;;;;;5.92;47.76;97621.72;6158361;23;20169;-81
2022/01/29 13:37:27;;;;;;;2.90;2.43;;;;;;;5.91;48.25;97624.34;6162322;23;20196;-81
2022/01/29 13:40:39;;;;;;;4.27;2.80;;;;;;;5.78;47.96;97624.53;6108688;23;20253;-81
2022/01/29 13:43:55;;;;;;;3.03;2.73;;;;;;;5.81;48.69;97623.63;6166402;23;20168;-82
2022/01/29 13:47:25;;;;;;;5.00;3.00;;;;;;;5.79;48.84;97615.06;6120590;23;20211;-83
2022/01/29 13:50:41;;;;;;;6.80;3.00;;;;;;;5.63;49.55;97613.66;6149920;23;20232;-82
2022/01/29 13:54:03;;;;;;;4.67;2.70;;;;;;;5.73;49.53;97635.75;6167340;23;20173;-83
2022/01/29 13:57:24;;;;;;;6.67;3.60;;;;;;;5.71;49.17;97637.47;6178287;23;20165;-83
2022/01/29 14:00:46;;;;;;;7.10;3.90;;;;;;;5.71;49.31;97650.34;6175496;23;20169;-81
2022/01/29 14:04:09;;;;;;;6.73;4.57;;;;;;;5.60;50.63;97635.13;6151725;23;20211;-83
2022/01/29 14:07:00;;;;;;;7.60;5.40;;;;;;;5.58;50.77;97641.16;6103615;23;20265;-82
2022/01/29 14:09:43;;;;;;;5.63;3.80;;;;;;;5.62;50.45;97635.09;6130482;23;20207;-82
2022/01/29 14:12:22;;;;;;;4.80;3.73;;;;;;;5.57;51.09;97648.00;6101864;23;20176;-83
2022/01/29 14:15:09;;;;;;;6.63;4.30;;;;;;;5.53;50.31;97638.66;6155173;23;20165;-83
2022/01/29 14:17:37;;;;;;;7.93;4.40;;;;;;;5.36;50.90;97621.81;6123921;23;20256;-83
2022/01/29 14:20:13;;;;;;;5.50;4.30;;;;;;;5.48;50.90;97637.88;6126697;23;20668;-82
2022/01/29 14:22:45;;;;;;;4.93;3.43;;;;;;;5.17;50.54;97605.88;6126865;23;20195;-82
2022/01/29 14:25:18;;;;;;;5.63;3.60;;;;;;;5.41;50.37;97635.44;6153943;23;20198;-82
2022/01/29 14:27:53;;;;;;;5.93;3.87;;;;;;;5.22;50.56;97619.47;6152513;23;20166;-83
2022/01/29 14:30:23;;;;;;;4.97;3.47;;;;;;;5.39;50.02;97652.59;6102979;23;20176;-82
2022/01/29 14:32:52;;;;;;;5.33;3.93;;;;;;;5.33;50.11;97660.38;6100986;23;20264;-83
2022/01/29 14:35:24;;;;;;;5.17;3.43;;;;;;;5.29;49.69;97644.19;6104636;23;20183;-82
2022/01/29 14:37:53;;;;;;;5.50;3.63;;;;;;;5.17;49.71;97635.81;6150456;23;20173;-83
2022/01/29 14:40:20;;;;;;;4.63;2.77;;;;;;;5.04;49.61;97611.19;6125646;23;20169;-82
2022/01/29 14:42:48;;;;;;;5.53;3.30;;;;;;;5.19;48.81;97644.34;6151097;23;20168;-82
2022/01/29 14:45:16;;;;;;;3.43;2.83;;;;;;;5.17;49.11;97651.22;6152464;23;20197;-83
2022/01/29 14:47:47;;;;;;;4.97;3.70;;;;;;;4.97;49.14;97611.28;6126567;23;20176;-83
2022/01/29 14:50:17;;;;;;;5.70;3.53;;;;;;;5.23;49.27;97657.13;6125487;23;20597;-83
2022/01/29 14:52:45;;;;;;;3.77;3.30;;;;;;;5.12;49.53;97643.59;6127058;23;20244;-83
2022/01/29 14:55:15;;;;;;;5.00;3.30;;;;;;;5.10;49.56;97653.03;6127053;23;20189;-83
2022/01/29 14:57:43;;;;;;;6.20;3.93;;;;;;;5.05;49.71;97659.09;6154177;23;20268;-83
2022/01/29 15:00:13;;;;;;;8.67;5.87;;;;;;;5.05;49.63;97664.25;6078447;23;20178;-83
2022/01/29 15:02:40;;;;;;;5.27;3.30;;;;;;;5.00;49.32;97666.00;6128616;23;20168;-83
2022/01/29 15:05:09;;;;;;;5.60;3.87;;;;;;;4.77;48.84;97630.41;6126646;23;20441;-83
2022/01/29 15:07:39;;;;;;;6.33;4.20;;;;;;;4.98;48.71;97660.91;6127893;23;20179;-81
2022/01/29 15:10:09;;;;;;;6.17;4.30;;;;;;;4.90;49.07;97661.00;6079874;23;20179;-82
2022/01/29 15:12:38;;;;;;;9.23;4.60;;;;;;;4.84;49.36;97648.25;6126990;23;20275;-82
2022/01/29 15:15:07;;;;;;;5.90;3.27;;;;;;;4.88;50.35;97667.88;6127133;23;20178;-82
2022/01/29 15:17:37;;;;;;;9.33;4.70;;;;;;;4.65;50.12;97662.22;6155330;23;20556;-82
2022/01/29 15:20:09;;;;;;;7.83;5.53;;;;;;;4.63;50.57;97674.19;6154695;23;20200;-83
2022/01/29 15:22:44;;;;;;;9.50;5.87;;;;;;;4.55;51.00;97670.88;6130605;23;20258;-82
2022/01/29 15:25:11;;;;;;;8.17;5.73;;;;;;;4.39;51.55;97643.69;6128418;23;20748;-82
2022/01/29 15:27:42;;;;;;;7.17;5.30;;;;;;;4.50;51.97;97675.22;6156715;23;20172;-82
2022/01/29 15:30:10;;;;;;;9.77;5.53;;;;;;;4.53;51.05;97679.47;6127075;23;20674;-82
2022/01/29 15:32:46;;;;;;;8.90;5.87;;;;;;;4.45;52.51;97661.56;6110236;23;20177;-81
2022/01/29 15:35:18;;;;;;;15.17;6.67;;;;;;;4.41;51.84;97665.03;6090431;23;20256;-83
2022/01/29 15:37:47;;;;;;;6.43;5.43;;;;;;;4.44;52.38;97677.84;6166169;23;20164;-83
2022/01/29 15:40:17;;;;;;;7.93;5.20;;;;;;;4.34;52.73;97681.38;6116027;23;20164;-83
2022/01/29 15:43:06;;;;;;;8.10;5.13;;;;;;;4.30;53.12;97682.28;6143783;23;20240;-83
2022/01/29 15:46:27;;;;;;;7.70;5.37;;;;;;;4.24;53.43;97690.03;6148770;23;20207;-82
2022/01/29 15:49:15;;;;;;;8.33;5.50;;;;;;;4.11;53.52;97671.38;6135737;23;20182;-84
2022/01/29 15:51:47;;;;;;;8.00;5.23;;;;;;;3.93;53.67;97645.94;6129183;23;20199;-83
2022/01/29 15:54:18;;;;;;;7.87;5.23;;;;;;;4.15;54.03;97682.44;6152840;23;20178;-82
2022/01/29 15:56:51;;;;;;;7.67;5.20;;;;;;;3.98;54.13;97671.50;6154723;23;20170;-82
2022/01/29 15:59:23;;;;;;;8.53;5.00;;;;;;;3.90;54.13;97660.47;6150680;23;20573;-87
2022/01/29 16:01:55;;;;;;;5.43;4.10;;;;;;;4.05;54.16;97683.41;6127253;23;20182;-89
2022/01/29 16:04:34;;;;;;;5.23;3.80;;;;;;;3.85;54.48;97675.06;6180059;23;20209;-82
2022/01/29 16:07:03;;;;;;;3.60;3.10;;;;;;;3.97;54.72;97696.28;6179307;23;20163;-86
2022/01/29 16:09:33;;;;;;;3.23;2.90;;;;;;;3.89;54.84;97676.72;6129046;23;20167;-82
2022/01/29 16:12:25;;;;;;;6.37;4.40;;;;;;;3.88;55.01;97688.69;6157887;23;20175;-83
2022/01/29 16:14:54;;;;;;;3.33;3.00;;;;;;;3.95;54.92;97704.84;6174309;23;20204;-82
2022/01/29 16:17:23;;;;;;;5.93;3.93;;;;;;;3.76;54.82;97670.88;6118246;23;20170;-82
2022/01/29 16:19:51;;;;;;;8.43;5.30;;;;;;;3.76;55.45;97676.00;6075553;23;20177;-82
2022/01/29 16:22:20;;;;;;;9.20;5.67;;;;;;;3.84;55.61;97686.16;6146628;23;20168;-82
2022/01/29 16:24:52;;;;;;;7.90;5.57;;;;;;;3.86;55.36;97694.69;6149119;23;20199;-82
2022/01/29 16:27:22;;;;;;;8.37;6.40;;;;;;;3.75;55.83;97679.41;6177446;23;20165;-82
2022/01/29 16:29:50;;;;;;;7.77;4.97;;;;;;;3.81;55.89;97691.31;6129956;23;20171;-83
2022/01/29 16:32:23;;;;;;;6.03;4.57;;;;;;;3.53;55.87;97657.41;6155003;23;20168;-83
2022/01/29 16:34:54;;;;;;;6.80;4.60;;;;;;;3.77;56.07;97708.41;6181702;23;20183;-83
2022/01/29 16:37:24;;;;;;;8.50;5.67;;;;;;;3.59;56.58;97669.31;6108717;23;20207;-82
2022/01/29 16:39:52;;;;;;;8.37;5.07;;;;;;;3.65;56.46;97700.84;6156876;23;20211;-82
2022/01/29 16:42:20;;;;;;;7.53;5.33;;;;;;;3.62;56.83;97693.19;6157314;23;20152;-83
2022/01/29 16:44:48;;;;;;;7.90;6.37;;;;;;;3.49;57.13;97677.91;6152521;23;20246;-81
2022/01/29 16:47:26;;;;;;;10.33;6.60;;;;;;;3.54;56.58;97689.84;6145602;23;20740;-82
2022/01/29 16:49:55;;;;;;;10.40;7.30;;;;;;;3.72;56.68;97692.25;6144741;23;20193;-82
2022/01/29 16:52:25;;;;;;;8.87;6.17;;;;;;;3.81;56.18;97706.69;6168798;23;20171;-82
2022/01/29 16:54:57;;;;;;;8.67;6.07;;;;;;;3.78;56.54;97710.13;6112950;23;20928;-81
2022/01/29 16:57:27;;;;;;;8.50;5.90;;;;;;;3.73;56.46;97714.41;6133533;23;20167;-80
2022/01/29 17:00:07;;;;;;;9.03;6.17;;;;;;;3.62;57.12;97708.56;6160061;23;20518;-83
2022/01/29 17:02:41;;;;;;;9.53;5.73;;;;;;;3.65;56.93;97702.53;6138335;23;20171;-82
2022/01/29 17:05:17;;;;;;;14.00;6.97;;;;;;;3.57;57.29;97694.06;6114796;23;20293;-83
2022/01/29 17:07:45;;;;;;;10.67;6.10;;;;;;;3.49;57.30;97693.28;6170388;23;20171;-83
2022/01/29 17:10:16;;;;;;;9.47;5.87;;;;;;;3.49;57.10;97680.47;6136967;23;20167;-82
2022/01/29 17:12:48;;;;;;;9.77;5.43;;;;;;;3.69;56.94;97707.63;6135311;23;20166;-83
2022/01/29 17:15:17;;;;;;;9.93;4.77;;;;;;;3.61;56.28;97676.13;6160154;23;20616;-82
2022/01/29 17:17:46;;;;;;;6.50;4.10;;;;;;;3.76;56.62;97698.19;6114106;23;20682;-82
2022/01/29 17:20:16;;;;;;;7.27;4.70;;;;;;;3.63;57.14;97691.47;6162818;23;20225;-82
2022/01/29 17:22:47;;;;;;;6.57;4.83;;;;;;;3.71;56.96;97694.84;6119837;23;20174;-83
2022/01/29 17:25:30;;;;;;;8.10;5.03;;;;;;;3.69;56.66;97696.56;6146246;23;20647;-82
2022/01/29 17:28:05;;;;;;;6.77;5.07;;;;;;;3.40;56.76;97649.84;6172462;23;20608;-82
2022/01/29 17:30:37;;;;;;;9.13;5.13;;;;;;;3.75;56.94;97702.44;6173309;23;20163;-82
2022/01/29 17:33:06;;;;;;;6.30;4.80;;;;;;;3.70;56.41;97700.81;6150498;23;20182;-82
2022/01/29 17:35:46;;;;;;;6.37;4.60;;;;;;;3.69;57.12;97697.38;6152161;23;20200;-81
2022/01/29 17:38:18;;;;;;;8.13;4.73;;;;;;;3.52;56.59;97672.78;6151807;23;20167;-83
2022/01/29 17:40:48;;;;;;;11.07;5.67;;;;;;;3.65;56.64;97698.28;6152251;23;20171;-82
2022/01/29 17:43:21;;;;;;;8.30;5.93;;;;;;;3.73;55.91;97700.78;6147336;23;20172;-82
2022/01/29 17:45:58;;;;;;;5.80;4.97;;;;;;;3.76;56.05;97695.63;6164053;23;20265;-81
2022/01/29 17:49:04;;;;;;;7.80;5.50;;;;;;;3.68;55.85;97674.34;6100067;23;20175;-83
2022/01/29 17:51:58;;;;;;;6.90;5.07;;;;;;;3.82;55.67;97705.81;6164896;23;20166;-82
2022/01/29 17:54:38;;;;;;;7.40;4.73;;;;;;;3.84;55.44;97706.66;6114069;23;20182;-83
2022/01/29 17:57:12;;;;;;;6.83;5.00;;;;;;;3.81;55.49;97702.41;6163951;23;20227;-83